METAR Reports From Nearby Airports

 

KLUD - Decatur, Texas, USA
Distance from Wildwood: ESE 5mi, 8km
Updated: Sep 23, 2020 4:55am
Mist, Overcast
Mist, Overcast
 
Temperature: 64°F , 18°C
Dew Point: 63°F , 17°C
Humidity: 94%
Barometer: 29.98 inHg , 1015.2 hPa
Summary: Mist
Clouds: Overcast
Visibility: 3 miles , 5 km
Cloud details: Mostly Cloudy 200 ft
Overcast 600 ft
2020/09/23 09:55 KLUD 230955Z AUTO 3SM BR BKN002 OVC006 18/17 A2998 RMK AO2 T01770171
KXBP - Bridgeport, Texas, USA
Distance from Wildwood: WSW 11mi, 18km
Updated: Sep 23, 2020 4:55am
Overcast
Overcast
 Wind from calm
Wind: Calm
Temperature: 64°F , 18°C
Dew Point: 64°F , 18°C
Humidity: 100%
Barometer: 30.00 inHg , 1015.9 hPa
Clouds: Overcast
Visibility: 10 miles , 16 km
Cloud details: Overcast 400 ft
2020/09/23 09:55 KXBP 230955Z AUTO 00000KT 10SM OVC004 18/18 A3000 RMK AO2 T01800180
 
K0F2 - Bowie, Texas, USA
Distance from Wildwood: NNW 24mi, 39km
Updated: Sep 23, 2020 4:55am
Overcast
Overcast
 Wind from calm
Wind: Calm
Temperature: 64°F , 18°C
Dew Point: 63°F , 17°C
Humidity: 94%
Barometer: 29.99 inHg , 1015.6 hPa
Clouds: Overcast
Visibility: 7 miles , 11 km
Cloud details: Mostly Cloudy 500 ft
Mostly Cloudy 1000 ft
Overcast 1900 ft
2020/09/23 09:55 K0F2 230955Z AUTO 00000KT 7SM BKN005 BKN010 OVC019 18/17 A2999 RMK AO2 T01760172
KDTO - Denton, Texas, USA
Distance from Wildwood: E 27mi, 44km
Updated: Sep 23, 2020 4:53am
Overcast
Overcast
 Wind from NE
Wind: NE 5 mph , 7 km/h
Temperature: 66°F , 19°C
Dew Point: 64°F , 18°C
Humidity: 94%
Barometer: 29.97 inHg , 1014.9 hPa
Clouds: Overcast
Visibility: 10 miles , 16 km
Cloud details: Few Clouds 800 ft
Overcast 1400 ft
2020/09/23 09:53 KDTO 230953Z AUTO 04004KT 10SM FEW008 OVC014 19/18 A2997 RMK AO2 SLP144 T01890178
 
KAFW - Ft Worth/Allianc, Texas, USA
Distance from Wildwood: SE 29mi, 46km
Updated: Sep 23, 2020 5:08am
Overcast
Overcast
 Wind from NNE
Wind: NNE 7 mph , 11 km/h
Temperature: 66°F , 19°C
Dew Point: 64°F , 18°C
Humidity: 94%
Barometer: 29.96 inHg , 1014.6 hPa
Clouds: Overcast
Visibility: 10 miles , 16 km
Cloud details: Overcast 600 ft
2020/09/23 10:08 KAFW 231008Z 03006KT 10SM OVC006 19/18 A2996 RMK AO2 CIG 004V010 T01890178 $
KFTW - Fort Worth, Texas, USA
Distance from Wildwood: SSE 34mi, 55km
Updated: Sep 23, 2020 5:03am
Overcast
Overcast
 Wind from NNE
Wind: NNE 7 mph , 11 km/h
Temperature: 64°F , 18°C
Dew Point: 64°F , 18°C
Humidity: 100%
Barometer: 29.95 inHg , 1014.2 hPa
Clouds: Overcast
Visibility: 10 miles , 16 km
Cloud details: Mostly Cloudy 500 ft
Overcast 3600 ft
2020/09/23 10:03 KFTW 231003Z 02006KT 10SM BKN005 OVC036 18/18 A2995 RMK AO2 T01830183
 
KNFW - Fort Worth Nas, Texas, USA
Distance from Wildwood: SSE 36mi, 58km
Updated: Sep 23, 2020 5:14am
Overcast
Overcast
 
Temperature: 66°F , 19°C
Dew Point: 64°F , 18°C
Humidity: 94%
Barometer: 29.96 inHg , 1014.6 hPa
Clouds: Overcast
Visibility: 10 miles , 16 km
Cloud details: Mostly Cloudy 800 ft
Overcast 3700 ft
2020/09/23 10:14 KNFW 231014Z AUTO 10SM BKN008 OVC037 19/18 A2996 RMK AO2 CIG 003 N T01940178 $
KGLE - Gainesville, Texas, USA
Distance from Wildwood: NE 38mi, 61km
Updated: Sep 23, 2020 4:55am
Overcast
Overcast
 Wind from ENE
Wind: ENE 5 mph , 7 km/h
Temperature: 63°F , 17°C
Dew Point: 63°F , 17°C
Humidity: 100%
Barometer: 30.00 inHg , 1015.9 hPa
Clouds: Overcast
Visibility: 3 miles , 5 km
Cloud details: Overcast 300 ft
2020/09/23 09:55 KGLE 230955Z AUTO 06004KT 3SM OVC003 17/17 A3000 RMK AO2 P0001 T01720170 PWINO
 
KMWL - Mineral Wells, Texas, USA
Distance from Wildwood: SW 41mi, 65km
Updated: Sep 23, 2020 4:53am
Overcast
Overcast
 Wind from N
Wind: N 3 mph , 6 km/h
Temperature: 64°F , 18°C
Dew Point: 64°F , 18°C
Humidity: 100%
Barometer: 29.96 inHg , 1014.6 hPa
Clouds: Overcast
Visibility: 10 miles , 16 km
Cloud details: Overcast 900 ft
2020/09/23 09:53 KMWL 230953Z AUTO 36003KT 10SM OVC009 18/18 A2996 RMK AO2 CIG 003V011 SLP136 T01830178
KDFW - Dallas/Ft Worth, Texas, USA
Distance from Wildwood: ESE 45mi, 73km
Updated: Sep 23, 2020 4:53am
Light drizzle, Overcast
Light drizzle, Overcast
 Wind from NNE
Wind: NNE 7 mph , 11 km/h
Temperature: 64°F , 18°C
Dew Point: 64°F , 18°C
Humidity: 100%
Barometer: 29.95 inHg , 1014.2 hPa
Summary: Light Drizzle
Clouds: Overcast
Visibility: 3 miles , 5 km
Cloud details: Overcast 700 ft
2020/09/23 09:53 KDFW 230953Z 02006KT 3SM -DZ OVC007 18/18 A2995 RMK AO2 SFC VIS 9 DZB51 CIG 004V012 SLP134 P0000 T01830183